createdAt,value
2019-02-19T00:02:19.875Z,319.43
2019-02-19T00:04:51.524Z,269.50
2019-02-19T00:07:23.222Z,276.57
2019-02-19T00:09:55.800Z,287.60
2019-02-19T00:12:27.500Z,283.80
2019-02-19T00:15:07.730Z,271.57
2019-02-19T00:17:32.471Z,284.10
2019-02-19T00:20:04.150Z,283.73
2019-02-19T00:22:36.840Z,281.67
2019-02-19T00:25:08.467Z,297.33
2019-02-19T00:27:40.073Z,274.27
2019-02-19T00:30:11.681Z,300.13
2019-02-19T00:32:43.354Z,277.77
2019-02-19T00:35:15.033Z,269.17
2019-02-19T00:37:46.616Z,281.60
2019-02-19T00:40:18.221Z,266.30
2019-02-19T00:42:49.879Z,247.93
2019-02-19T00:45:21.479Z,269.30
2019-02-19T00:47:53.102Z,255.77
2019-02-19T00:50:24.688Z,254.23
2019-02-19T00:52:56.350Z,265.83
2019-02-19T00:55:27.932Z,262.63
2019-02-19T00:57:59.547Z,260.97
2019-02-19T01:00:31.132Z,282.00
2019-02-19T01:03:02.797Z,255.20
2019-02-19T01:05:34.469Z,268.27
2019-02-19T01:08:06.088Z,279.77
2019-02-19T01:10:37.753Z,236.23
2019-02-19T01:13:09.664Z,237.17
2019-02-19T01:15:41.355Z,221.73
2019-02-19T01:18:13.142Z,231.03
2019-02-19T01:20:44.730Z,243.47
2019-02-19T01:23:16.431Z,240.73
2019-02-19T01:25:48.986Z,256.10
2019-02-19T01:28:20.601Z,238.47
2019-02-19T01:30:52.199Z,202.90
2019-02-19T01:33:23.868Z,201.10
2019-02-19T01:35:55.496Z,204.80
2019-02-19T01:38:27.125Z,187.80
2019-02-19T01:40:58.734Z,216.87
2019-02-19T01:43:30.351Z,237.90
2019-02-19T01:46:01.962Z,233.10
2019-02-19T01:48:33.623Z,229.67
2019-02-19T01:51:05.220Z,233.90
2019-02-19T01:53:36.903Z,222.17
2019-02-19T01:56:08.520Z,235.67
2019-02-19T01:58:40.141Z,234.47
2019-02-19T02:01:12.047Z,230.67
2019-02-19T02:03:43.997Z,242.10
2019-02-19T02:06:15.909Z,242.17
2019-02-19T02:08:49.120Z,234.03
2019-02-19T02:11:20.705Z,242.30
2019-02-19T02:13:53.292Z,248.53
2019-02-19T02:16:24.892Z,257.47
2019-02-19T02:18:56.566Z,240.13
2019-02-19T02:21:28.161Z,235.53
2019-02-19T02:23:59.765Z,225.23
2019-02-19T02:26:31.510Z,237.30
2019-02-19T02:29:03.175Z,247.60
2019-02-19T02:31:34.877Z,241.97
2019-02-19T02:34:06.600Z,249.87
2019-02-19T02:36:38.227Z,256.60
2019-02-19T02:39:09.952Z,232.90
2019-02-19T02:41:41.597Z,250.87
2019-02-19T02:44:13.263Z,281.67
2019-02-19T02:46:44.866Z,279.23
2019-02-19T02:49:16.473Z,262.20
2019-02-19T02:51:48.058Z,253.20
2019-02-19T02:54:19.690Z,251.60
2019-02-19T02:56:51.285Z,265.27
2019-02-19T02:59:22.898Z,256.27
2019-02-19T03:01:54.505Z,254.67
2019-02-19T03:04:26.124Z,279.07
2019-02-19T03:07:16.625Z,317.97
2019-02-19T03:09:48.254Z,300.27
2019-02-19T03:12:19.920Z,303.50
2019-02-19T03:14:51.524Z,300.43
2019-02-19T03:17:23.123Z,309.87
2019-02-19T03:19:54.735Z,310.90
2019-02-19T03:22:26.341Z,319.20
2019-02-19T03:24:58.007Z,318.17
2019-02-19T03:27:29.656Z,350.93
2019-02-19T03:30:01.263Z,391.67
2019-02-19T03:32:33.321Z,410.93
2019-02-19T03:35:05.060Z,362.77
2019-02-19T03:37:36.742Z,366.70
2019-02-19T03:40:08.664Z,374.20
2019-02-19T03:42:40.422Z,366.83
2019-02-19T03:45:12.477Z,357.27
2019-02-19T03:47:44.239Z,351.20
2019-02-19T03:50:16.219Z,368.10
2019-02-19T03:52:47.821Z,359.07
2019-02-19T03:55:19.435Z,325.63
2019-02-19T03:57:51.127Z,296.23
2019-02-19T04:00:22.721Z,317.90
2019-02-19T04:02:54.339Z,313.27
2019-02-19T04:05:26.065Z,295.07
2019-02-19T04:07:57.733Z,304.53
2019-02-19T04:10:29.362Z,290.13
2019-02-19T04:13:00.944Z,280.40
2019-02-19T04:15:32.639Z,306.07
2019-02-19T04:18:04.293Z,294.73
2019-02-19T04:20:35.876Z,267.93
2019-02-19T04:23:07.545Z,255.13
2019-02-19T04:25:39.265Z,281.53
2019-02-19T04:28:11.121Z,283.77
2019-02-19T04:30:43.131Z,285.77
2019-02-19T04:33:14.733Z,283.10
2019-02-19T04:35:46.388Z,268.43
2019-02-19T04:38:17.983Z,264.87
2019-02-19T04:40:49.633Z,262.73
2019-02-19T04:43:21.294Z,246.07
2019-02-19T04:45:52.906Z,255.00
2019-02-19T04:48:24.494Z,262.93
2019-02-19T04:50:56.178Z,283.13
2019-02-19T04:53:27.784Z,277.73
2019-02-19T04:55:59.386Z,254.47
2019-02-19T04:58:31.046Z,261.20
2019-02-19T05:01:02.718Z,250.53
2019-02-19T05:03:34.319Z,263.80
2019-02-19T05:06:05.941Z,251.40
2019-02-19T05:08:38.598Z,243.90
2019-02-19T05:11:10.295Z,238.90
2019-02-19T05:13:43.205Z,240.30
2019-02-19T05:16:14.829Z,248.07
2019-02-19T05:18:46.423Z,250.53
2019-02-19T05:21:18.045Z,246.13
2019-02-19T05:23:49.702Z,234.23
2019-02-19T05:26:21.392Z,238.27
2019-02-19T05:28:53.009Z,249.20
2019-02-19T05:31:24.643Z,243.97
2019-02-19T05:33:56.319Z,245.27
2019-02-19T05:36:28.108Z,252.77
2019-02-19T05:38:59.835Z,282.87
2019-02-19T05:41:31.490Z,265.97
2019-02-19T05:44:03.166Z,252.70
2019-02-19T05:46:34.775Z,257.33
2019-02-19T05:49:06.378Z,269.03
2019-02-19T05:51:37.998Z,254.47
2019-02-19T05:54:09.671Z,268.37
2019-02-19T05:56:41.469Z,246.30
2019-02-19T05:59:13.230Z,243.53
2019-02-19T06:01:44.821Z,259.10
2019-02-19T06:04:16.526Z,241.23
2019-02-19T06:06:48.184Z,263.73
2019-02-19T06:09:19.958Z,279.20
2019-02-19T06:11:51.577Z,289.07
2019-02-19T06:14:23.235Z,279.73
2019-02-19T06:16:58.602Z,288.07
2019-02-19T06:19:28.191Z,260.27
2019-02-19T06:21:59.790Z,260.27
2019-02-19T06:24:31.483Z,271.53
2019-02-19T06:27:03.101Z,275.03
2019-02-19T06:29:34.716Z,269.43
2019-02-19T06:32:06.422Z,263.63
2019-02-19T06:34:38.030Z,256.50
2019-02-19T06:37:09.744Z,274.70
2019-02-19T06:39:41.440Z,258.07
2019-02-19T06:42:13.365Z,281.73
2019-02-19T06:44:44.990Z,280.53
2019-02-19T06:47:16.600Z,246.67
2019-02-19T06:49:48.274Z,267.30
2019-02-19T06:52:19.901Z,249.77
2019-02-19T06:54:51.562Z,269.57
2019-02-19T06:57:24.164Z,258.10
2019-02-19T06:59:55.845Z,237.77
2019-02-19T07:02:58.215Z,224.03
2019-02-19T07:05:29.880Z,202.47
2019-02-19T07:08:01.958Z,241.40
2019-02-19T07:10:33.621Z,142.73
2019-02-19T07:13:05.300Z,165.47
2019-02-19T07:15:36.926Z,147.70
2019-02-19T07:18:08.612Z,157.03
2019-02-19T07:20:40.493Z,139.53
2019-02-19T07:23:12.129Z,107.40
2019-02-19T07:25:43.734Z,111.13
2019-02-19T07:28:15.343Z,110.80
2019-02-19T07:30:46.935Z,99.53
2019-02-19T07:33:18.549Z,98.10
2019-02-19T07:35:50.209Z,86.50
2019-02-19T07:38:21.826Z,81.13
2019-02-19T07:40:53.430Z,120.67
2019-02-19T07:43:25.043Z,128.57
2019-02-19T07:45:56.692Z,80.53
2019-02-19T07:48:28.308Z,89.70
2019-02-19T07:50:59.894Z,86.13
2019-02-19T07:53:31.577Z,88.70
2019-02-19T07:56:03.182Z,75.17
2019-02-19T07:58:34.815Z,75.93
2019-02-19T08:01:06.499Z,77.83
2019-02-19T08:03:38.181Z,91.57
2019-02-19T08:06:09.769Z,75.93
2019-02-19T08:08:41.485Z,111.30
2019-02-19T08:11:13.362Z,78.30
2019-02-19T08:13:44.970Z,98.93
2019-02-19T08:16:16.635Z,94.77
2019-02-19T08:18:48.323Z,93.63
2019-02-19T08:21:21.615Z,125.93
2019-02-19T08:23:53.303Z,84.30
2019-02-19T08:26:24.902Z,92.07
2019-02-19T08:29:04.221Z,83.70
2019-02-19T08:31:29.894Z,73.00
2019-02-19T08:34:01.569Z,84.13
2019-02-19T08:36:33.241Z,68.83
2019-02-19T08:39:05.516Z,66.30
2019-02-19T08:41:37.597Z,61.33
2019-02-19T08:44:09.548Z,52.90
2019-02-19T08:46:41.454Z,48.20
2019-02-19T08:49:13.348Z,50.37
2019-02-19T08:51:45.031Z,51.67
2019-02-19T08:54:16.638Z,46.80
2019-02-19T08:56:48.233Z,52.73
2019-02-19T08:59:19.842Z,45.67
2019-02-19T09:01:51.463Z,47.13
2019-02-19T09:04:23.048Z,48.30
2019-02-19T09:06:54.713Z,52.13
2019-02-19T09:09:26.398Z,50.53
2019-02-19T09:11:58.062Z,50.77
2019-02-19T09:14:29.689Z,46.77
2019-02-19T09:17:01.319Z,42.03
2019-02-19T09:19:32.999Z,52.07
2019-02-19T09:22:04.668Z,46.13
2019-02-19T09:24:36.291Z,53.20
2019-02-19T09:27:07.898Z,45.80
2019-02-19T09:29:39.617Z,46.23
2019-02-19T09:32:11.434Z,44.47
2019-02-19T09:34:43.294Z,41.67
2019-02-19T09:37:14.880Z,44.27
2019-02-19T09:39:46.496Z,45.60
2019-02-19T09:42:18.154Z,38.60
2019-02-19T09:44:49.822Z,42.67
2019-02-19T09:47:21.432Z,42.27
2019-02-19T09:49:53.049Z,43.90
2019-02-19T09:52:24.645Z,42.17
2019-02-19T09:54:56.249Z,41.43
2019-02-19T09:57:27.911Z,40.77
2019-02-19T09:59:59.526Z,39.17
2019-02-19T10:02:31.229Z,43.73
2019-02-19T10:05:03.134Z,39.93
2019-02-19T10:07:34.787Z,43.57
2019-02-19T10:10:08.128Z,41.70
2019-02-19T10:12:39.783Z,36.60
2019-02-19T10:15:12.372Z,39.50
2019-02-19T10:17:44.057Z,40.60
2019-02-19T10:20:16.065Z,45.10
2019-02-19T10:22:47.731Z,44.13
2019-02-19T10:25:19.422Z,44.80
2019-02-19T10:27:51.308Z,44.70
2019-02-19T10:30:22.941Z,44.03
2019-02-19T10:32:54.615Z,40.37
2019-02-19T10:35:26.304Z,38.70
2019-02-19T10:37:57.970Z,41.20
2019-02-19T10:40:29.592Z,38.93
2019-02-19T10:43:01.195Z,33.23
2019-02-19T10:45:32.811Z,34.83
2019-02-19T10:48:04.473Z,43.47
2019-02-19T10:50:36.164Z,36.60
2019-02-19T10:53:07.767Z,32.47
2019-02-19T10:55:39.601Z,30.90
2019-02-19T10:58:11.628Z,35.33
2019-02-19T11:00:43.559Z,27.43
2019-02-19T11:03:15.170Z,31.87
2019-02-19T11:05:46.886Z,36.93
2019-02-19T11:08:18.496Z,33.63
2019-02-19T11:10:51.100Z,24.93
2019-02-19T11:13:22.775Z,30.63
2019-02-19T11:15:54.381Z,31.27
2019-02-19T11:18:28.672Z,30.40
2019-02-19T11:21:00.518Z,26.97
2019-02-19T11:23:33.737Z,29.53
2019-02-19T11:26:05.509Z,30.07
2019-02-19T11:28:37.128Z,34.17
2019-02-19T11:31:08.762Z,27.20
2019-02-19T11:33:40.583Z,29.33
2019-02-19T11:36:12.220Z,30.57
2019-02-19T11:38:43.823Z,32.80
2019-02-19T11:41:15.549Z,27.60
2019-02-19T11:43:47.172Z,27.47
2019-02-19T11:46:18.785Z,31.03
2019-02-19T11:48:50.391Z,26.63
2019-02-19T11:51:21.990Z,33.47
2019-02-19T11:53:53.602Z,28.50
2019-02-19T11:56:25.234Z,28.23
2019-02-19T11:58:56.904Z,26.53
2019-02-19T12:01:28.557Z,28.07
2019-02-19T12:04:01.627Z,32.57
2019-02-19T12:06:33.305Z,31.17
2019-02-19T12:09:05.712Z,38.27
2019-02-19T12:11:37.799Z,36.80
2019-02-19T12:14:09.616Z,35.03
2019-02-19T12:16:41.514Z,30.73
2019-02-19T12:19:13.393Z,35.17
2019-02-19T12:21:46.401Z,33.87
2019-02-19T12:24:18.002Z,32.07
2019-02-19T12:26:49.687Z,49.40
2019-02-19T12:29:21.291Z,47.03
2019-02-19T12:31:52.979Z,37.50
2019-02-19T12:34:24.584Z,35.23
2019-02-19T12:36:56.306Z,27.90
2019-02-19T12:39:27.991Z,43.23
2019-02-19T12:41:59.628Z,44.07
2019-02-19T12:44:31.303Z,45.23
2019-02-19T12:47:02.962Z,34.23
2019-02-19T12:49:34.639Z,34.17
2019-02-19T12:52:06.268Z,33.70
2019-02-19T12:54:37.875Z,44.53
2019-02-19T12:57:09.654Z,30.83
2019-02-19T12:59:41.508Z,36.20
2019-02-19T13:02:13.446Z,45.83
2019-02-19T13:04:45.047Z,46.03
2019-02-19T13:07:16.760Z,41.90
2019-02-19T13:09:48.373Z,34.20
2019-02-19T13:12:19.991Z,40.83
2019-02-19T13:14:51.615Z,52.40
2019-02-19T13:17:23.300Z,41.00
2019-02-19T13:19:55.002Z,39.67
2019-02-19T13:22:26.635Z,50.00
2019-02-19T13:24:58.258Z,50.03
2019-02-19T13:27:29.867Z,64.10
2019-02-19T13:30:01.488Z,44.63
2019-02-19T13:32:33.162Z,37.73
2019-02-19T13:35:08.923Z,43.10
2019-02-19T13:37:41.772Z,38.67
2019-02-19T13:40:14.153Z,53.10
2019-02-19T13:42:45.968Z,49.40
2019-02-19T13:45:17.718Z,43.80
2019-02-19T13:47:49.440Z,80.50
2019-02-19T13:50:21.534Z,43.97
2019-02-19T13:53:17.938Z,52.70
2019-02-19T13:55:52.230Z,58.97
2019-02-19T13:58:23.937Z,73.20
2019-02-19T14:00:55.542Z,48.40
2019-02-19T14:03:27.210Z,71.20
2019-02-19T14:05:58.797Z,93.37
2019-02-19T14:08:30.410Z,57.17
2019-02-19T14:11:02.009Z,74.27
2019-02-19T14:13:33.711Z,49.47
2019-02-19T14:16:18.158Z,60.07
2019-02-19T14:18:57.874Z,65.57
2019-02-19T14:21:51.009Z,55.43
2019-02-19T14:24:38.330Z,53.70
2019-02-19T14:27:31.823Z,88.37
2019-02-19T14:30:21.574Z,71.50
2019-02-19T14:33:09.221Z,61.67
2019-02-19T14:35:58.070Z,80.90
2019-02-19T14:39:03.823Z,92.50
2019-02-19T14:41:49.313Z,100.80
2019-02-19T14:44:41.196Z,73.63
2019-02-19T14:47:34.700Z,62.10
2019-02-19T14:50:35.526Z,76.70
2019-02-19T14:53:34.766Z,91.27
2019-02-19T14:56:34.078Z,67.30
2019-02-19T14:59:23.237Z,49.93
2019-02-19T15:02:12.255Z,74.40
2019-02-19T15:05:08.460Z,57.97
2019-02-19T15:08:04.966Z,184.87
2019-02-19T15:11:03.660Z,206.53
2019-02-19T15:13:48.286Z,111.60
2019-02-19T15:16:37.463Z,57.97
2019-02-19T15:19:20.175Z,45.83
2019-02-19T15:22:16.678Z,46.50
2019-02-19T15:25:09.969Z,166.87
2019-02-19T15:28:00.798Z,227.70
2019-02-19T15:31:00.269Z,59.13
2019-02-19T15:34:08.980Z,63.60
2019-02-19T15:36:58.494Z,67.13
2019-02-19T15:40:03.882Z,89.87
2019-02-19T15:42:54.002Z,83.37
2019-02-19T15:45:43.745Z,91.47
2019-02-19T15:48:32.859Z,101.17
2019-02-19T15:51:17.890Z,111.60
2019-02-19T15:54:07.131Z,49.53
2019-02-19T15:56:57.347Z,53.33
2019-02-19T15:59:46.595Z,54.83
2019-02-19T16:02:39.935Z,70.57
2019-02-19T16:05:30.964Z,43.27
2019-02-19T16:08:24.045Z,47.37
2019-02-19T16:11:21.656Z,64.77
2019-02-19T16:14:02.557Z,45.20
2019-02-19T16:16:43.763Z,45.13
2019-02-19T16:19:32.981Z,53.67
2019-02-19T16:22:20.586Z,62.47
2019-02-19T16:25:09.725Z,57.20
2019-02-19T16:28:18.642Z,50.27
2019-02-19T16:31:09.236Z,55.07
2019-02-19T16:34:08.672Z,57.43
2019-02-19T16:36:49.132Z,53.03
2019-02-19T16:39:38.268Z,58.37
2019-02-19T16:42:27.035Z,57.13
2019-02-19T16:45:26.617Z,61.77
2019-02-19T16:48:15.583Z,75.90
2019-02-19T16:51:12.207Z,61.27
2019-02-19T16:54:02.795Z,69.37
2019-02-19T16:56:56.226Z,59.33
2019-02-19T16:59:50.474Z,77.17
2019-02-19T17:02:43.865Z,76.93
2019-02-19T17:05:34.638Z,73.30
2019-02-19T17:08:15.550Z,71.63
2019-02-19T17:11:16.078Z,79.67
2019-02-19T17:14:07.134Z,52.97
2019-02-19T17:16:54.419Z,54.00
2019-02-19T17:19:56.843Z,67.33
2019-02-19T17:22:40.823Z,69.47
2019-02-19T17:25:37.372Z,61.87
2019-02-19T17:28:25.687Z,68.93
2019-02-19T17:31:17.837Z,60.57
2019-02-19T17:34:11.597Z,69.00
2019-02-19T17:37:04.887Z,72.53
2019-02-19T17:39:59.536Z,70.77
2019-02-19T17:42:51.636Z,62.07
2019-02-19T17:45:38.502Z,74.40
2019-02-19T17:48:27.623Z,62.73
2019-02-19T17:51:14.779Z,63.50
2019-02-19T17:54:08.004Z,58.60
2019-02-19T17:57:13.454Z,54.83
2019-02-19T18:00:04.728Z,46.07
2019-02-19T18:03:10.107Z,56.47
2019-02-19T18:06:08.653Z,76.07
2019-02-19T18:09:01.878Z,45.63
2019-02-19T18:11:52.799Z,41.07
2019-02-19T18:14:44.329Z,45.37
2019-02-19T18:17:29.437Z,36.77
2019-02-19T18:20:01.247Z,31.80
2019-02-19T18:22:34.656Z,40.23
2019-02-19T18:25:07.168Z,40.40
2019-02-19T18:27:38.862Z,37.77
2019-02-19T18:30:10.489Z,36.83
2019-02-19T18:32:42.166Z,44.50
2019-02-19T18:35:14.397Z,33.20
2019-02-19T18:37:46.227Z,79.73
2019-02-19T18:40:18.163Z,89.57
2019-02-19T18:42:50.146Z,68.80
2019-02-19T18:45:22.565Z,57.87
2019-02-19T18:47:54.228Z,64.97
2019-02-19T18:50:26.398Z,80.60
2019-02-19T18:52:58.510Z,52.63
2019-02-19T18:55:33.423Z,71.20
2019-02-19T18:58:05.440Z,75.63
2019-02-19T19:00:37.120Z,58.60
2019-02-19T19:03:08.996Z,40.83
2019-02-19T19:05:40.840Z,43.07
2019-02-19T19:08:12.665Z,50.43
2019-02-19T19:10:44.562Z,56.53
2019-02-19T19:13:16.353Z,49.07
2019-02-19T19:15:48.322Z,48.43
2019-02-19T19:18:21.205Z,37.60
2019-02-19T19:20:55.654Z,38.43
2019-02-19T19:23:28.018Z,28.83
2019-02-19T19:25:59.714Z,32.67
2019-02-19T19:28:31.612Z,32.33
2019-02-19T19:31:03.603Z,50.67
2019-02-19T19:33:35.920Z,28.40
2019-02-19T19:36:07.871Z,28.10
2019-02-19T19:38:39.687Z,28.63
2019-02-19T19:41:12.782Z,38.40
2019-02-19T19:43:44.585Z,36.73
2019-02-19T19:46:16.548Z,72.03
2019-02-19T19:48:49.454Z,49.37
2019-02-19T19:51:21.509Z,51.90
2019-02-19T19:53:53.848Z,693.60
2019-02-19T19:56:27.102Z,29.53
2019-02-19T19:58:58.924Z,60.80
2019-02-19T20:01:32.053Z,57.47
2019-02-19T20:04:04.584Z,52.20
2019-02-19T20:06:36.722Z,41.83
2019-02-19T20:09:08.788Z,31.57
2019-02-19T20:11:42.049Z,34.07
2019-02-19T20:14:14.364Z,30.60
2019-02-19T20:16:46.319Z,34.60
2019-02-19T20:19:18.947Z,38.13
2019-02-19T20:21:51.087Z,43.17
2019-02-19T20:24:23.545Z,51.57
2019-02-19T20:26:56.285Z,50.63
2019-02-19T20:29:28.944Z,42.73
2019-02-19T20:32:01.052Z,31.17
2019-02-19T20:34:32.958Z,31.93
2019-02-19T20:37:05.065Z,37.93
2019-02-19T20:39:37.746Z,47.47
2019-02-19T20:42:10.913Z,56.93
2019-02-19T20:44:44.063Z,50.60
2019-02-19T20:47:16.591Z,53.53
2019-02-19T20:49:48.243Z,47.60
2019-02-19T20:52:20.546Z,51.47
2019-02-19T20:54:52.248Z,50.87
2019-02-19T20:57:24.307Z,44.23
2019-02-19T20:59:56.021Z,50.07
2019-02-19T21:02:30.490Z,33.37
2019-02-19T21:05:02.279Z,39.33
2019-02-19T21:07:35.518Z,34.37
2019-02-19T21:10:09.705Z,25.17
2019-02-19T21:12:44.785Z,24.03
2019-02-19T21:15:16.576Z,28.60
2019-02-19T21:17:48.856Z,24.60
2019-02-19T21:20:22.106Z,23.20
2019-02-19T21:22:55.100Z,26.83
2019-02-19T21:25:31.056Z,28.07
2019-02-19T21:28:00.771Z,26.20
2019-02-19T21:30:32.866Z,29.67
2019-02-19T21:33:05.167Z,27.60
2019-02-19T21:35:37.297Z,26.67
2019-02-19T21:38:09.323Z,26.20
2019-02-19T21:40:41.078Z,29.37
2019-02-19T21:43:12.839Z,28.60
2019-02-19T21:45:44.605Z,26.60
2019-02-19T21:48:17.837Z,25.50
2019-02-19T21:50:51.159Z,28.10
2019-02-19T21:53:23.509Z,33.33
2019-02-19T21:55:55.200Z,29.70
2019-02-19T21:58:26.941Z,27.90
2019-02-19T22:00:59.228Z,28.80
2019-02-19T22:03:31.258Z,31.10
2019-02-19T22:06:06.760Z,21.87
2019-02-19T22:08:39.679Z,27.40
2019-02-19T22:11:11.368Z,27.40
2019-02-19T22:13:43.287Z,29.23
2019-02-19T22:16:14.968Z,29.23
2019-02-19T22:18:46.767Z,31.67
2019-02-19T22:21:37.394Z,33.27
2019-02-19T22:24:09.506Z,38.13
2019-02-19T22:26:41.240Z,31.10
2019-02-19T22:29:12.938Z,30.50
2019-02-19T22:31:44.711Z,31.97
2019-02-19T22:34:16.908Z,29.20
2019-02-19T22:36:50.136Z,28.03
2019-02-19T22:39:21.828Z,24.17
2019-02-19T22:41:53.510Z,26.33
2019-02-19T22:44:25.190Z,28.47
2019-02-19T22:46:58.712Z,33.23
2019-02-19T22:49:30.396Z,27.93
2019-02-19T22:52:02.063Z,26.50
2019-02-19T22:54:43.993Z,39.57
2019-02-19T22:57:16.386Z,34.10
2019-02-19T22:59:48.043Z,36.73
2019-02-19T23:02:24.106Z,44.63
2019-02-19T23:04:56.376Z,30.23
2019-02-19T23:07:28.140Z,33.53
2019-02-19T23:10:01.300Z,23.17
2019-02-19T23:12:34.263Z,19.00
2019-02-19T23:15:06.130Z,25.90
2019-02-19T23:17:38.355Z,27.87
2019-02-19T23:20:10.022Z,20.83
2019-02-19T23:22:41.768Z,22.83
2019-02-19T23:25:14.048Z,26.13
2019-02-19T23:27:47.120Z,25.90
2019-02-19T23:30:18.785Z,23.17
2019-02-19T23:32:50.451Z,24.43
2019-02-19T23:35:38.729Z,21.27
2019-02-19T23:38:10.394Z,20.43
2019-02-19T23:40:42.050Z,19.93
2019-02-19T23:43:13.632Z,19.33
2019-02-19T23:45:45.469Z,22.37
2019-02-19T23:48:17.119Z,19.87
2019-02-19T23:50:48.783Z,20.80
2019-02-19T23:53:20.439Z,17.93
2019-02-19T23:55:52.012Z,16.23
2019-02-19T23:58:23.665Z,20.67
